createdAt,value
2023-01-17T00:02:01.353Z,99442.88
2023-01-17T00:04:46.648Z,99439.00
2023-01-17T00:07:34.654Z,99439.53
2023-01-17T00:10:07.388Z,99440.13
2023-01-17T00:12:36.368Z,99439.38
2023-01-17T00:15:07.216Z,99440.31
2023-01-17T00:17:35.158Z,99453.53
2023-01-17T00:20:20.786Z,99451.22
2023-01-17T00:23:06.166Z,99461.44
2023-01-17T00:25:57.637Z,99457.03
2023-01-17T00:28:27.383Z,99440.16
2023-01-17T00:30:55.545Z,99436.84
2023-01-17T00:33:23.838Z,99423.50
2023-01-17T00:35:52.010Z,99418.31
2023-01-17T00:38:20.456Z,99413.50
2023-01-17T00:40:48.195Z,99415.03
2023-01-17T00:43:37.231Z,99423.66
2023-01-17T00:46:24.888Z,99419.00
2023-01-17T00:49:10.895Z,99409.13
2023-01-17T00:51:56.822Z,99400.94
2023-01-17T00:54:42.471Z,99392.78
2023-01-17T00:57:27.929Z,99383.69
2023-01-17T01:00:13.456Z,99376.34
2023-01-17T01:03:00.423Z,99367.88
2023-01-17T01:05:45.859Z,99368.06
2023-01-17T01:08:36.015Z,99359.25
2023-01-17T01:11:24.956Z,99352.06
2023-01-17T01:14:10.472Z,99356.75
2023-01-17T01:16:55.910Z,99357.41
2023-01-17T01:19:43.093Z,99362.47
2023-01-17T01:22:28.557Z,99363.84
2023-01-17T01:25:14.125Z,99356.03
2023-01-17T01:27:59.394Z,99360.34
2023-01-17T01:30:44.619Z,99360.25
2023-01-17T01:33:20.069Z,99357.78
2023-01-17T01:35:51.252Z,99349.97
2023-01-17T01:38:19.875Z,99339.47
2023-01-17T01:40:49.559Z,99341.47
2023-01-17T01:43:19.809Z,99348.00
2023-01-17T01:45:52.735Z,99344.75
2023-01-17T01:48:34.003Z,99339.53
2023-01-17T01:51:04.927Z,99335.28
2023-01-17T01:53:35.945Z,99317.25
2023-01-17T01:56:07.299Z,99314.75
2023-01-17T01:58:37.901Z,99303.72
2023-01-17T02:01:09.443Z,99303.47
2023-01-17T02:03:38.783Z,99303.84
2023-01-17T02:06:21.868Z,99298.31
2023-01-17T02:08:50.254Z,99290.03
2023-01-17T02:11:18.294Z,99304.19
2023-01-17T02:13:46.238Z,99300.97
2023-01-17T02:16:28.201Z,99312.28
2023-01-17T02:19:09.487Z,99312.41
2023-01-17T02:21:45.682Z,99307.13
2023-01-17T02:24:42.809Z,99305.28
2023-01-17T02:27:23.467Z,99318.91
2023-01-17T02:30:14.699Z,99304.75
2023-01-17T02:33:07.820Z,99296.75
2023-01-17T02:35:43.685Z,99314.41
2023-01-17T02:38:18.603Z,99302.72
2023-01-17T02:40:50.604Z,99293.53
2023-01-17T02:43:21.699Z,99274.28
2023-01-17T02:45:49.662Z,99283.94
2023-01-17T02:48:24.028Z,99303.00
2023-01-17T02:51:21.932Z,99290.75
2023-01-17T02:54:02.361Z,99280.84
2023-01-17T02:56:43.062Z,99291.03
2023-01-17T02:59:20.663Z,99303.56
2023-01-17T03:02:03.580Z,99295.63
2023-01-17T03:04:40.228Z,99275.91
2023-01-17T03:07:13.144Z,99278.13
2023-01-17T03:09:43.830Z,99287.22
2023-01-17T03:12:11.767Z,99287.22
2023-01-17T03:14:39.890Z,99273.41
2023-01-17T03:17:08.289Z,99271.84
2023-01-17T03:19:37.595Z,99273.16
2023-01-17T03:22:05.570Z,99275.63
2023-01-17T03:24:33.481Z,99275.28
2023-01-17T03:27:01.382Z,99269.09
2023-01-17T03:29:29.325Z,99263.13
2023-01-17T03:31:57.454Z,99259.03
2023-01-17T03:34:25.392Z,99269.19
2023-01-17T03:36:54.712Z,99250.56
2023-01-17T03:39:22.607Z,99251.31
2023-01-17T03:41:50.534Z,99235.38
2023-01-17T03:44:18.446Z,99246.00
2023-01-17T03:46:46.369Z,99234.91
2023-01-17T03:49:14.338Z,99229.94
2023-01-17T03:51:42.531Z,99225.00
2023-01-17T03:54:11.864Z,99229.09
2023-01-17T03:56:39.802Z,99232.91
2023-01-17T03:59:07.748Z,99237.66
2023-01-17T04:01:35.807Z,99237.16
2023-01-17T04:04:03.752Z,99237.66
2023-01-17T04:06:31.684Z,99236.56
2023-01-17T04:08:59.620Z,99236.19
2023-01-17T04:11:28.969Z,99243.97
2023-01-17T04:13:56.911Z,99253.94
2023-01-17T04:16:29.378Z,99260.72
2023-01-17T04:18:57.875Z,99265.69
2023-01-17T04:21:25.874Z,99275.00
2023-01-17T04:23:53.799Z,99270.28
2023-01-17T04:26:21.723Z,99239.38
2023-01-17T04:28:51.035Z,99272.31
2023-01-17T04:31:18.994Z,99276.44
2023-01-17T04:33:46.987Z,99271.28
2023-01-17T04:36:14.916Z,99277.09
2023-01-17T04:38:42.852Z,99278.59
2023-01-17T04:41:10.819Z,99288.06
2023-01-17T04:43:38.762Z,99288.78
2023-01-17T04:46:10.215Z,99286.19
2023-01-17T04:48:38.411Z,99277.97
2023-01-17T04:51:07.263Z,99272.09
2023-01-17T04:53:35.358Z,99265.50
2023-01-17T04:56:03.264Z,99266.34
2023-01-17T04:58:33.461Z,99270.47
2023-01-17T05:01:05.120Z,99271.44
2023-01-17T05:03:35.530Z,99262.25
2023-01-17T05:06:03.524Z,99257.09
2023-01-17T05:08:31.585Z,99251.19
2023-01-17T05:10:59.529Z,99254.63
2023-01-17T05:13:27.457Z,99255.34
2023-01-17T05:15:55.544Z,99267.66
2023-01-17T05:18:23.496Z,99270.22
2023-01-17T05:20:52.812Z,99266.91
2023-01-17T05:23:20.739Z,99272.59
2023-01-17T05:25:48.660Z,99286.44
2023-01-17T05:28:16.576Z,99287.50
2023-01-17T05:30:44.556Z,99291.59
2023-01-17T05:33:12.509Z,99303.78
2023-01-17T05:35:40.448Z,99316.41
2023-01-17T05:38:09.774Z,99327.50
2023-01-17T05:40:37.741Z,99334.13
2023-01-17T05:43:05.788Z,99349.28
2023-01-17T05:45:34.825Z,99354.56
2023-01-17T05:48:03.678Z,99350.94
2023-01-17T05:50:33.228Z,99357.56
2023-01-17T05:53:03.200Z,99346.41
2023-01-17T05:55:33.441Z,99348.66
2023-01-17T05:58:01.965Z,99340.59
2023-01-17T06:00:30.655Z,99339.19
2023-01-17T06:03:00.489Z,99341.63
2023-01-17T06:05:29.729Z,99354.88
2023-01-17T06:07:58.114Z,99354.25
2023-01-17T06:10:26.731Z,99352.28
2023-01-17T06:13:04.427Z,99345.66
2023-01-17T06:15:32.613Z,99346.41
2023-01-17T06:18:05.723Z,99345.06
2023-01-17T06:20:34.618Z,99348.78
2023-01-17T06:23:04.509Z,99352.31
2023-01-17T06:25:36.631Z,99360.28
2023-01-17T06:28:06.807Z,99359.13
2023-01-17T06:30:35.042Z,99352.63
2023-01-17T06:33:03.368Z,99358.91
2023-01-17T06:35:31.822Z,99359.09
2023-01-17T06:38:00.607Z,99350.22
2023-01-17T06:40:29.512Z,99343.88
2023-01-17T06:43:01.683Z,99357.53
2023-01-17T06:45:32.620Z,99351.72
2023-01-17T06:48:03.760Z,99352.97
2023-01-17T06:50:32.645Z,99345.31
2023-01-17T06:53:02.679Z,99345.50
2023-01-17T06:55:33.819Z,99346.31
2023-01-17T06:58:03.080Z,99351.25
2023-01-17T07:00:35.152Z,99353.00
2023-01-17T07:03:03.964Z,99351.59
2023-01-17T07:05:32.901Z,99348.38
2023-01-17T07:08:00.820Z,99355.47
2023-01-17T07:10:28.854Z,99351.81
2023-01-17T07:13:00.872Z,99362.72
2023-01-17T07:15:29.058Z,99367.13
2023-01-17T07:17:58.408Z,99365.09
2023-01-17T07:20:26.349Z,99367.06
2023-01-17T07:22:54.284Z,99367.88
2023-01-17T07:25:22.398Z,99368.88
2023-01-17T07:27:50.390Z,99372.16
2023-01-17T07:30:18.824Z,99365.25
2023-01-17T07:32:52.130Z,99352.41
2023-01-17T07:35:21.965Z,99359.75
2023-01-17T07:37:50.040Z,99364.47
2023-01-17T07:40:19.292Z,99367.69
2023-01-17T07:42:47.745Z,99367.53
2023-01-17T07:45:17.331Z,99368.06
2023-01-17T07:47:45.298Z,99360.78
2023-01-17T07:50:14.265Z,99352.91
2023-01-17T07:52:43.571Z,99359.75
2023-01-17T07:55:11.621Z,99360.41
2023-01-17T07:57:39.547Z,99354.66
2023-01-17T08:00:09.305Z,99349.78
2023-01-17T08:02:37.247Z,99357.69
2023-01-17T08:05:05.668Z,99359.25
2023-01-17T08:07:33.593Z,99368.19
2023-01-17T08:10:03.047Z,99362.28
2023-01-17T08:12:30.970Z,99369.31
2023-01-17T08:14:58.982Z,99356.78
2023-01-17T08:17:27.334Z,99360.28
2023-01-17T08:19:55.239Z,99360.28
2023-01-17T08:22:23.207Z,99368.31
2023-01-17T08:24:51.115Z,99363.72
2023-01-17T08:27:20.411Z,99348.53
2023-01-17T08:29:48.935Z,99351.97
2023-01-17T08:32:17.174Z,99362.38
2023-01-17T08:34:45.113Z,99361.66
2023-01-17T08:37:13.027Z,99355.28
2023-01-17T08:39:41.047Z,99358.88
2023-01-17T08:42:09.044Z,99365.38
2023-01-17T08:44:38.730Z,99369.88
2023-01-17T08:47:06.802Z,99365.22
2023-01-17T08:49:34.758Z,99362.66
2023-01-17T08:52:02.748Z,99354.59
2023-01-17T08:54:30.682Z,99362.84
2023-01-17T08:56:58.634Z,99358.16
2023-01-17T08:59:26.688Z,99372.31
2023-01-17T09:01:58.358Z,99366.97
2023-01-17T09:04:26.559Z,99361.91
2023-01-17T09:06:54.551Z,99361.63
2023-01-17T09:09:22.473Z,99361.50
2023-01-17T09:11:50.408Z,99358.88
2023-01-17T09:14:18.341Z,99354.31
2023-01-17T09:16:46.280Z,99348.88
2023-01-17T09:19:15.581Z,99344.72
2023-01-17T09:21:43.540Z,99352.91
2023-01-17T09:24:11.540Z,99344.94
2023-01-17T09:26:39.835Z,99334.34
2023-01-17T09:29:07.809Z,99336.88
2023-01-17T09:31:35.844Z,99329.25
2023-01-17T09:34:03.792Z,99338.34
2023-01-17T09:36:34.079Z,99317.84
2023-01-17T09:39:02.512Z,99334.06
2023-01-17T09:41:33.221Z,99314.06
2023-01-17T09:44:05.893Z,99325.03
2023-01-17T09:46:40.639Z,99319.13
2023-01-17T09:49:13.354Z,99329.59
2023-01-17T09:51:43.576Z,99311.28
2023-01-17T09:54:22.569Z,99332.25
2023-01-17T09:57:04.111Z,99315.88
2023-01-17T09:59:44.327Z,99314.72
2023-01-17T10:02:32.555Z,99302.69
2023-01-17T10:05:17.954Z,99309.19
2023-01-17T10:08:04.700Z,99305.06
2023-01-17T10:10:41.926Z,99313.66
2023-01-17T10:13:29.958Z,99310.84
2023-01-17T10:16:09.719Z,99300.28
2023-01-17T10:18:57.302Z,99297.91
2023-01-17T10:21:34.836Z,99309.88
2023-01-17T10:24:19.627Z,99313.53
2023-01-17T10:26:51.445Z,99299.13
2023-01-17T10:29:22.037Z,99317.94
2023-01-17T10:31:55.368Z,99300.31
2023-01-17T10:34:29.103Z,99305.31
2023-01-17T10:37:01.992Z,99303.28
2023-01-17T10:39:32.416Z,99304.25
2023-01-17T10:42:05.043Z,99307.84
2023-01-17T10:44:40.025Z,99277.72
2023-01-17T10:47:16.030Z,99295.00
2023-01-17T10:49:46.785Z,99288.47
2023-01-17T10:52:24.104Z,99289.47
2023-01-17T10:55:05.285Z,99293.28
2023-01-17T10:57:40.706Z,99295.44
2023-01-17T11:00:35.614Z,99287.72
2023-01-17T11:03:03.897Z,99287.31
2023-01-17T11:05:33.956Z,99293.78
2023-01-17T11:08:04.163Z,99295.97
2023-01-17T11:10:42.912Z,99291.13
2023-01-17T11:13:25.087Z,99288.34
2023-01-17T11:15:57.669Z,99295.31
2023-01-17T11:18:28.662Z,99281.31
2023-01-17T11:21:11.383Z,99279.22
2023-01-17T11:23:41.741Z,99282.53
2023-01-17T11:26:14.098Z,99274.94
2023-01-17T11:28:42.774Z,99279.63
2023-01-17T11:31:26.132Z,99262.63
2023-01-17T11:34:08.275Z,99275.84
2023-01-17T11:36:36.221Z,99276.00
2023-01-17T11:39:07.063Z,99270.81
2023-01-17T11:41:38.925Z,99266.47
2023-01-17T11:44:22.605Z,99256.59
2023-01-17T11:47:08.604Z,99260.13
2023-01-17T11:49:37.107Z,99269.28
2023-01-17T11:52:10.061Z,99264.88
2023-01-17T11:54:42.539Z,99266.22
2023-01-17T11:57:22.035Z,99252.81
2023-01-17T11:59:50.499Z,99258.19
2023-01-17T12:02:43.040Z,99265.50
2023-01-17T12:05:24.368Z,99239.81
2023-01-17T12:08:01.802Z,99277.78
2023-01-17T12:10:36.422Z,99271.47
2023-01-17T12:13:33.346Z,99252.50
2023-01-17T12:16:29.702Z,99265.28
2023-01-17T12:19:18.594Z,99262.03
2023-01-17T12:21:58.142Z,99259.63
2023-01-17T12:24:49.149Z,99255.03
2023-01-17T12:27:25.728Z,99258.31
2023-01-17T12:30:11.631Z,99257.56
2023-01-17T12:32:56.338Z,99242.03
2023-01-17T12:35:31.667Z,99248.69
2023-01-17T12:38:07.138Z,99259.16
2023-01-17T12:40:40.128Z,99255.03
2023-01-17T12:43:17.403Z,99254.28
2023-01-17T12:45:48.561Z,99252.69
2023-01-17T12:48:18.757Z,99255.88
2023-01-17T12:50:53.084Z,99254.66
2023-01-17T12:53:30.758Z,99256.91
2023-01-17T12:56:05.009Z,99259.00
2023-01-17T12:58:39.478Z,99256.06
2023-01-17T13:01:20.953Z,99260.28
2023-01-17T13:04:01.383Z,99259.63
2023-01-17T13:06:46.447Z,99261.28
2023-01-17T13:09:20.659Z,99262.75
2023-01-17T13:11:53.142Z,99268.38
2023-01-17T13:14:21.091Z,99273.06
2023-01-17T13:16:58.979Z,99271.69
2023-01-17T13:19:35.866Z,99275.00
2023-01-17T13:22:08.125Z,99274.06
2023-01-17T13:24:47.299Z,99274.19
2023-01-17T13:27:40.138Z,99285.19
2023-01-17T13:30:27.153Z,99277.75
2023-01-17T13:33:22.867Z,99285.72
2023-01-17T13:36:00.883Z,99290.94
2023-01-17T13:38:43.673Z,99285.44
2023-01-17T13:41:28.295Z,99289.00
2023-01-17T13:44:22.203Z,99291.91
2023-01-17T13:47:01.902Z,99294.38
2023-01-17T13:49:36.877Z,99287.38
2023-01-17T13:52:10.762Z,99289.00
2023-01-17T13:54:47.537Z,99282.84
2023-01-17T13:57:43.831Z,99268.44
2023-01-17T14:00:51.498Z,99275.19
2023-01-17T14:03:52.662Z,99275.06
2023-01-17T14:06:37.324Z,99271.63
2023-01-17T14:09:12.472Z,99278.06
2023-01-17T14:11:53.749Z,99278.06
2023-01-17T14:14:55.686Z,99274.91
2023-01-17T14:17:49.953Z,99277.50
2023-01-17T14:20:57.559Z,99269.81
2023-01-17T14:23:34.024Z,99265.53
2023-01-17T14:26:18.945Z,99274.47
2023-01-17T14:28:46.927Z,99278.28
2023-01-17T14:31:17.944Z,99285.41
2023-01-17T14:33:45.919Z,99278.31
2023-01-17T14:36:22.201Z,99286.81
2023-01-17T14:38:51.821Z,99290.22
2023-01-17T14:41:22.939Z,99285.72
2023-01-17T14:43:52.449Z,99286.25
2023-01-17T14:46:26.334Z,99289.44
2023-01-17T14:49:01.387Z,99288.84
2023-01-17T14:51:30.125Z,99287.09
2023-01-17T14:54:02.439Z,99289.94
2023-01-17T14:56:31.816Z,99294.78
2023-01-17T14:59:17.131Z,99287.63
2023-01-17T15:02:06.672Z,99285.28
2023-01-17T15:04:39.650Z,99284.84
2023-01-17T15:07:08.734Z,99290.44
2023-01-17T15:09:39.054Z,99290.50
2023-01-17T15:12:10.735Z,99295.78
2023-01-17T15:14:42.844Z,99283.72
2023-01-17T15:17:11.522Z,99286.88
2023-01-17T15:19:44.311Z,99280.94
2023-01-17T15:22:13.116Z,99279.81
2023-01-17T15:24:44.741Z,99283.91
2023-01-17T15:27:14.456Z,99285.69
2023-01-17T15:29:42.935Z,99280.91
2023-01-17T15:32:19.196Z,99287.22
2023-01-17T15:34:49.753Z,99277.50
2023-01-17T15:37:30.759Z,99279.28
2023-01-17T15:40:15.999Z,99268.88
2023-01-17T15:42:45.387Z,99279.53
2023-01-17T15:45:19.924Z,99271.84
2023-01-17T15:47:48.970Z,99274.03
2023-01-17T15:50:31.603Z,99279.25
2023-01-17T15:53:01.633Z,99282.81
2023-01-17T15:55:34.006Z,99283.88
2023-01-17T15:58:02.480Z,99277.81
2023-01-17T16:00:38.366Z,99275.06
2023-01-17T16:03:21.824Z,99275.25
2023-01-17T16:05:50.892Z,99257.38
2023-01-17T16:08:26.868Z,99256.50
2023-01-17T16:11:01.887Z,99269.03
2023-01-17T16:13:31.711Z,99264.38
2023-01-17T16:16:21.987Z,99263.00
2023-01-17T16:18:59.197Z,99258.75
2023-01-17T16:21:28.821Z,99260.81
2023-01-17T16:23:56.857Z,99262.53
2023-01-17T16:26:26.367Z,99266.97
2023-01-17T16:28:54.311Z,99268.63
2023-01-17T16:31:22.435Z,99216.28
2023-01-17T16:33:51.786Z,99277.50
2023-01-17T16:36:21.313Z,99285.44
2023-01-17T16:38:51.259Z,99291.56
2023-01-17T16:41:19.605Z,99293.16
2023-01-17T16:43:58.493Z,99289.78
2023-01-17T16:46:27.169Z,99305.59
2023-01-17T16:48:55.133Z,99310.00
2023-01-17T16:51:23.389Z,99318.88
2023-01-17T16:53:51.310Z,99302.84
2023-01-17T16:56:20.889Z,99317.25
2023-01-17T16:58:53.203Z,99311.13
2023-01-17T17:01:22.934Z,99311.44
2023-01-17T17:03:50.987Z,99306.72
2023-01-17T17:06:18.996Z,99302.13
2023-01-17T17:08:47.647Z,99307.09
2023-01-17T17:11:18.199Z,99310.13
2023-01-17T17:13:47.543Z,99311.56
2023-01-17T17:16:19.892Z,99325.00
2023-01-17T17:18:55.107Z,99319.34
2023-01-17T17:21:23.123Z,99318.63
2023-01-17T17:23:56.729Z,99319.81
2023-01-17T17:26:26.794Z,99321.25
2023-01-17T17:28:55.236Z,99323.69
2023-01-17T17:31:25.167Z,99310.41
2023-01-17T17:33:53.138Z,99321.00
2023-01-17T17:36:21.112Z,99307.09
2023-01-17T17:38:52.002Z,99308.50
2023-01-17T17:41:21.699Z,99308.59
2023-01-17T17:43:49.823Z,99296.09
2023-01-17T17:46:17.814Z,99298.34
2023-01-17T17:48:47.344Z,99297.72
2023-01-17T17:51:23.871Z,99287.22
2023-01-17T17:53:52.783Z,99289.44
2023-01-17T17:56:21.269Z,99281.41
2023-01-17T17:58:49.553Z,99272.28
2023-01-17T18:01:17.778Z,99270.38
2023-01-17T18:03:47.170Z,99264.34
2023-01-17T18:06:17.511Z,99260.94
2023-01-17T18:08:46.153Z,99251.94
2023-01-17T18:11:18.568Z,99252.66
2023-01-17T18:13:50.459Z,99250.50
2023-01-17T18:16:20.562Z,99244.03
2023-01-17T18:18:52.272Z,99237.66
2023-01-17T18:21:23.829Z,99228.13
2023-01-17T18:23:54.563Z,99235.84
2023-01-17T18:26:25.173Z,99229.69
2023-01-17T18:28:54.394Z,99222.44
2023-01-17T18:31:24.418Z,99214.38
2023-01-17T18:33:54.411Z,99222.84
2023-01-17T18:36:24.233Z,99216.53
2023-01-17T18:38:53.126Z,99214.75
2023-01-17T18:41:23.381Z,99217.66
2023-01-17T18:43:51.357Z,99205.84
2023-01-17T18:46:20.558Z,99210.84
2023-01-17T18:48:48.983Z,99220.13
2023-01-17T18:51:20.469Z,99203.88
2023-01-17T18:53:48.552Z,99201.19
2023-01-17T18:56:19.008Z,99203.13
2023-01-17T18:58:48.617Z,99199.22
2023-01-17T19:01:17.895Z,99198.59
2023-01-17T19:03:48.528Z,99201.28
2023-01-17T19:06:20.822Z,99192.84
2023-01-17T19:08:49.518Z,99184.66
2023-01-17T19:11:17.431Z,99184.78
2023-01-17T19:13:45.491Z,99171.06
2023-01-17T19:16:17.314Z,99171.88
2023-01-17T19:18:45.299Z,99176.69
2023-01-17T19:21:14.391Z,99168.25
2023-01-17T19:23:44.477Z,99147.47
2023-01-17T19:26:13.939Z,99167.13
2023-01-17T19:28:43.043Z,99165.41
2023-01-17T19:31:12.840Z,99181.94
2023-01-17T19:33:43.723Z,99179.41
2023-01-17T19:36:16.994Z,99177.19
2023-01-17T19:38:58.680Z,99164.00
2023-01-17T19:41:31.195Z,99184.03
2023-01-17T19:44:01.753Z,99175.84
2023-01-17T19:46:30.430Z,99185.75
2023-01-17T19:48:59.736Z,99187.78
2023-01-17T19:51:27.999Z,99188.97
2023-01-17T19:53:59.212Z,99174.91
2023-01-17T19:56:27.625Z,99192.00
2023-01-17T19:59:00.646Z,99172.78
2023-01-17T20:01:30.414Z,99171.34
2023-01-17T20:03:59.596Z,99164.63
2023-01-17T20:06:29.824Z,99166.09
2023-01-17T20:08:59.478Z,99163.88
2023-01-17T20:11:29.031Z,99160.25
2023-01-17T20:13:58.863Z,99162.56
2023-01-17T20:16:28.474Z,99147.72
2023-01-17T20:18:56.633Z,99148.38
2023-01-17T20:21:26.197Z,99153.00
2023-01-17T20:23:55.511Z,99152.66
2023-01-17T20:26:29.746Z,99148.88
2023-01-17T20:28:57.857Z,99141.28
2023-01-17T20:31:26.933Z,99141.41
2023-01-17T20:33:56.573Z,99144.84
2023-01-17T20:36:26.257Z,99137.78
2023-01-17T20:38:54.583Z,99141.09
2023-01-17T20:41:25.537Z,99146.03
2023-01-17T20:43:55.351Z,99148.38
2023-01-17T20:46:26.280Z,99131.22
2023-01-17T20:48:56.569Z,99143.44
2023-01-17T20:51:26.298Z,99145.63
2023-01-17T20:53:56.510Z,99137.72
2023-01-17T20:56:26.137Z,99143.72
2023-01-17T20:58:54.760Z,99140.44
2023-01-17T21:01:23.642Z,99136.25
2023-01-17T21:03:54.057Z,99134.97
2023-01-17T21:06:24.328Z,99135.31
2023-01-17T21:08:53.088Z,99118.16
2023-01-17T21:11:22.856Z,99113.53
2023-01-17T21:13:52.412Z,99096.72
2023-01-17T21:16:23.014Z,99112.41
2023-01-17T21:18:52.690Z,99117.34
2023-01-17T21:21:22.997Z,99111.78
2023-01-17T21:23:52.503Z,99108.69
2023-01-17T21:26:21.858Z,99110.06
2023-01-17T21:28:51.213Z,99103.50
2023-01-17T21:31:23.411Z,99099.38
2023-01-17T21:33:53.750Z,99098.59
2023-01-17T21:36:23.223Z,99096.06
2023-01-17T21:38:52.581Z,99089.81
2023-01-17T21:41:21.751Z,99084.06
2023-01-17T21:43:54.369Z,99091.06
2023-01-17T21:46:22.417Z,99077.13
2023-01-17T21:48:50.367Z,99083.41
2023-01-17T21:51:19.620Z,99075.69
2023-01-17T21:53:47.582Z,99069.91
2023-01-17T21:56:33.508Z,99060.59
2023-01-17T21:59:03.093Z,99064.47
2023-01-17T22:01:34.304Z,99061.00
2023-01-17T22:04:03.883Z,99067.59
2023-01-17T22:06:34.363Z,99073.81
2023-01-17T22:09:02.312Z,99071.56
2023-01-17T22:11:31.148Z,99059.31
2023-01-17T22:13:59.563Z,99066.44
2023-01-17T22:16:29.174Z,99077.81
2023-01-17T22:18:57.143Z,99072.50
2023-01-17T22:21:28.239Z,99068.31
2023-01-17T22:23:57.980Z,99052.72
2023-01-17T22:26:27.954Z,99069.41
2023-01-17T22:28:56.727Z,99062.41
2023-01-17T22:31:27.317Z,99056.84
2023-01-17T22:33:58.661Z,99053.59
2023-01-17T22:36:27.266Z,99051.25
2023-01-17T22:38:55.228Z,99059.59
2023-01-17T22:41:24.809Z,99052.72
2023-01-17T22:43:54.443Z,99059.47
2023-01-17T22:46:25.238Z,99042.66
2023-01-17T22:48:54.870Z,99042.09
2023-01-17T22:51:25.660Z,99046.41
2023-01-17T22:53:55.471Z,99045.81
2023-01-17T22:56:26.486Z,99053.03
2023-01-17T22:58:54.703Z,99047.97
2023-01-17T23:01:24.633Z,99035.44
2023-01-17T23:03:54.451Z,99037.03
2023-01-17T23:06:25.878Z,99049.94
2023-01-17T23:08:55.541Z,99042.28
2023-01-17T23:11:42.842Z,99037.53
2023-01-17T23:14:15.107Z,99028.09
2023-01-17T23:17:02.999Z,99037.16
2023-01-17T23:19:34.764Z,99040.06
2023-01-17T23:22:19.389Z,99034.56
2023-01-17T23:24:53.261Z,99037.66
2023-01-17T23:27:41.784Z,99042.41
2023-01-17T23:30:12.496Z,99043.31
2023-01-17T23:32:41.037Z,99036.47
2023-01-17T23:35:09.158Z,99042.25
2023-01-17T23:37:56.159Z,99031.66
2023-01-17T23:40:24.267Z,99045.88
2023-01-17T23:43:09.601Z,99047.47
2023-01-17T23:45:38.096Z,99048.13
2023-01-17T23:48:09.581Z,99043.72
2023-01-17T23:50:37.722Z,99037.13
2023-01-17T23:53:08.100Z,99046.75
2023-01-17T23:55:37.355Z,99050.06
2023-01-17T23:58:05.906Z,99049.13
